Time;durP1;ratioP1;P1;durP2;ratioP2;P2;SDS_P1;SDS_P2;PMS_P1;PMS_P2;Temp;Humidity;BMP_temperature;BMP_pressure;BME280_temperature;BME280_humidity;BME280_pressure;Samples;Min_cycle;Max_cycle;Signal;HPM_P1;HPM_P2
2022/01/24 00:00:09;;;;;;;17.52;9.75;;;;;;;;;;2121162;27;20154;-50
2022/01/24 00:01:10;;;;;;;17.10;9.35;;;;;;;;;;2115250;28;20132;-50
2022/01/24 00:02:11;;;;;;;15.65;9.63;;;;;;;;;;2114576;28;20047;-50
2022/01/24 00:03:13;;;;;;;18.40;10.30;;;;;;;;;;2116281;27;20526;-51
2022/01/24 00:04:14;;;;;;;17.13;9.68;;;;;;;;;;2123043;28;20130;-50
2022/01/24 00:05:17;;;;;;;15.10;9.10;;;;;;;;;;2122402;28;20050;-50
2022/01/24 00:06:18;;;;;;;16.75;10.05;;;;;;;;;;2117729;28;20134;-50
2022/01/24 00:07:22;;;;;;;18.13;9.90;;;;;;;;;;2123098;28;20143;-50
2022/01/24 00:08:23;;;;;;;19.73;10.20;;;;;;;;;;2122236;27;20138;-49
2022/01/24 00:09:24;;;;;;;17.13;9.85;;;;;;;;;;2115856;28;20157;-49
2022/01/24 00:10:27;;;;;;;16.75;10.32;;;;;;;;;;2114357;28;20104;-52
2022/01/24 00:11:39;;;;;;;18.33;10.43;;;;;;;;;;2115813;27;20172;-50
2022/01/24 00:12:50;;;;;;;17.20;10.65;;;;;;;;;;2114358;28;20043;-49
2022/01/24 00:15:17;;;;;;;22.30;11.60;;;;;;;;;;2115201;28;20130;-51
2022/01/24 00:16:33;;;;;;;18.90;11.13;;;;;;;;;;2114243;28;20044;-49
2022/01/24 00:17:38;;;;;;;21.33;12.00;;;;;;;;;;2120753;27;20043;-49
2022/01/24 00:26:46;;;;;;;19.70;10.50;;;;;;;;;;2122140;28;20126;-52
2022/01/24 00:27:47;;;;;;;20.77;11.35;;;;;;;;;;2122784;28;20067;-50
2022/01/24 00:28:49;;;;;;;20.30;11.40;;;;;;;;;;2119831;27;20142;-49
2022/01/24 00:29:50;;;;;;;20.33;11.63;;;;;;;;;;2122670;28;20135;-50
2022/01/24 00:30:52;;;;;;;21.37;11.93;;;;;;;;;;2123108;27;20050;-49
2022/01/24 00:31:53;;;;;;;;;;;;;;;;;;2119597;27;20051;-50
2022/01/24 00:32:54;;;;;;;20.50;8.48;;;;;;;;;;2122812;28;20010;-51
2022/01/24 00:33:55;;;;;;;23.63;11.63;;;;;;;;;;2121632;27;21047;-50
2022/01/24 00:34:56;;;;;;;22.70;12.07;;;;;;;;;;2120699;28;20047;-49
2022/01/24 00:35:57;;;;;;;19.05;11.45;;;;;;;;;;2122687;28;20070;-51
2022/01/24 00:36:59;;;;;;;19.27;11.35;;;;;;;;;;2119859;27;20484;-49
2022/01/24 00:38:02;;;;;;;21.90;11.73;;;;;;;;;;2114258;28;20130;-49
2022/01/24 00:39:03;;;;;;;19.10;11.63;;;;;;;;;;2114225;28;20074;-49
2022/01/24 00:40:05;;;;;;;21.27;11.60;;;;;;;;;;2118047;27;20050;-49
2022/01/24 00:41:12;;;;;;;17.70;10.27;;;;;;;;;;2122524;28;20673;-49
2022/01/24 00:42:24;;;;;;;22.70;12.00;;;;;;;;;;2123313;27;20564;-49
2022/01/24 00:43:30;;;;;;;21.30;11.57;;;;;;;;;;2115087;28;20188;-49
2022/01/24 00:44:47;;;;;;;20.17;11.40;;;;;;;;;;2114259;28;20483;-50
2022/01/24 00:45:57;;;;;;;20.10;10.45;;;;;;;;;;2118438;27;20180;-50
2022/01/24 00:47:02;;;;;;;23.42;12.70;;;;;;;;;;2122836;28;20050;-49
2022/01/24 00:48:31;;;;;;;22.67;12.43;;;;;;;;;;2122064;27;20130;-53
2022/01/24 00:49:52;;;;;;;24.38;12.68;;;;;;;;;;2122786;28;20058;-50
2022/01/24 00:53:49;;;;;;;22.83;11.00;;;;;;;;;;2123677;27;20047;-51
2022/01/24 00:54:52;;;;;;;19.83;10.40;;;;;;;;;;2121405;28;20058;-49
2022/01/24 00:55:53;;;;;;;26.38;13.68;;;;;;;;;;2124082;28;20051;-50
2022/01/24 00:56:54;;;;;;;25.70;13.40;;;;;;;;;;2121570;27;20039;-49
2022/01/24 00:57:56;;;;;;;27.77;13.83;;;;;;;;;;2123872;28;20075;-49
2022/01/24 00:58:57;;;;;;;23.38;13.20;;;;;;;;;;2124169;28;20047;-50
2022/01/24 00:59:58;;;;;;;23.58;12.50;;;;;;;;;;2120968;27;20449;-50
2022/01/24 01:00:59;;;;;;;24.30;13.85;;;;;;;;;;2122084;28;20521;-50
2022/01/24 01:02:00;;;;;;;25.75;13.55;;;;;;;;;;2116569;27;20055;-50
2022/01/24 01:03:02;;;;;;;25.67;13.38;;;;;;;;;;2119504;27;20063;-52
2022/01/24 01:04:03;;;;;;;31.27;14.55;;;;;;;;;;2115562;28;20049;-49
2022/01/24 01:05:14;;;;;;;26.48;13.98;;;;;;;;;;2117844;27;20045;-51
2022/01/24 01:06:16;;;;;;;24.65;13.13;;;;;;;;;;2115353;28;20082;-50
2022/01/24 01:07:25;;;;;;;23.92;13.88;;;;;;;;;;2115377;28;20100;-49
2022/01/24 01:19:04;;;;;;;24.75;12.30;;;;;;;;;;2116924;27;20134;-49
2022/01/24 01:20:05;;;;;;;27.10;11.57;;;;;;;;;;2120024;27;20051;-48
2022/01/24 01:21:11;;;;;;;29.48;15.10;;;;;;;;;;2123932;28;20134;-49
2022/01/24 01:22:12;;;;;;;28.52;13.40;;;;;;;;;;2122198;27;20122;-53
2022/01/24 01:23:13;;;;;;;26.95;14.25;;;;;;;;;;2122917;28;20097;-51
2022/01/24 01:24:14;;;;;;;28.23;15.18;;;;;;;;;;2123987;28;20411;-49
2022/01/24 01:25:16;;;;;;;24.05;12.55;;;;;;;;;;2121244;27;20456;-49
2022/01/24 01:26:24;;;;;;;27.60;14.75;;;;;;;;;;2123692;28;20075;-49
2022/01/24 01:27:32;;;;;;;25.40;12.40;;;;;;;;;;2123987;28;20505;-50
2022/01/24 01:28:34;;;;;;;29.08;14.80;;;;;;;;;;2119479;28;20122;-49
2022/01/24 01:29:46;;;;;;;;;;;;;;;;;;2124447;28;20083;-50
2022/01/24 01:30:51;;;;;;;25.20;10.55;;;;;;;;;;2121939;27;20395;-50
2022/01/24 01:32:01;;;;;;;25.45;11.95;;;;;;;;;;2115324;28;20493;-50
2022/01/24 01:33:09;;;;;;;26.08;11.60;;;;;;;;;;2115489;28;20066;-49
2022/01/24 01:34:24;;;;;;;30.90;12.85;;;;;;;;;;2119149;28;20602;-49
2022/01/24 01:35:41;;;;;;;27.55;13.45;;;;;;;;;;2123917;28;20074;-49
2022/01/24 01:37:21;;;;;;;24.58;11.52;;;;;;;;;;2120867;27;20141;-49
2022/01/24 01:38:38;;;;;;;25.85;12.02;;;;;;;;;;2123320;28;20172;-49
2022/01/24 01:40:05;;;;;;;23.90;10.77;;;;;;;;;;2117290;27;20093;-49
2022/01/24 01:53:32;;;;;;;23.65;10.82;;;;;;;;;;2091071;28;21783;-50
2022/01/24 01:54:49;;;;;;;28.40;10.10;;;;;;;;;;2089065;28;20395;-49
2022/01/24 01:55:51;;;;;;;24.10;11.02;;;;;;;;;;2089363;28;20049;-49
2022/01/24 01:56:52;;;;;;;21.90;10.27;;;;;;;;;;2096655;28;20048;-49
2022/01/24 01:57:53;;;;;;;23.87;10.57;;;;;;;;;;2115768;28;20475;-49
2022/01/24 01:58:54;;;;;;;27.25;12.48;;;;;;;;;;2124275;27;20123;-50
2022/01/24 01:59:55;;;;;;;26.37;11.80;;;;;;;;;;2116079;28;20055;-52
2022/01/24 02:01:00;;;;;;;24.13;11.00;;;;;;;;;;2114989;28;20136;-48
2022/01/24 02:02:02;;;;;;;26.52;11.63;;;;;;;;;;2119062;27;20050;-50
2022/01/24 02:03:03;;;;;;;26.92;11.98;;;;;;;;;;2123263;28;20054;-49
2022/01/24 02:04:05;;;;;;;24.67;12.60;;;;;;;;;;2118750;28;20515;-49
2022/01/24 02:05:06;;;;;;;;;;;;;;;;;;2119646;27;20512;-49
2022/01/24 02:06:07;;;;;;;24.63;9.45;;;;;;;;;;2123832;28;19919;-49
2022/01/24 02:07:10;;;;;;;26.42;10.55;;;;;;;;;;2123633;27;20075;-49
2022/01/24 02:08:11;;;;;;;23.75;10.63;;;;;;;;;;2120447;27;20137;-50
2022/01/24 02:09:13;;;;;;;21.70;10.65;;;;;;;;;;2123669;28;20165;-52
2022/01/24 02:10:15;;;;;;;22.63;10.63;;;;;;;;;;2121420;27;20047;-49
2022/01/24 02:11:17;;;;;;;27.13;11.82;;;;;;;;;;2115851;28;20071;-49
2022/01/24 02:12:23;;;;;;;30.48;12.70;;;;;;;;;;2115288;28;20081;-50
2022/01/24 02:13:25;;;;;;;28.42;12.38;;;;;;;;;;2117966;27;20486;-50
2022/01/24 02:14:32;;;;;;;29.80;12.60;;;;;;;;;;2123451;28;20134;-49
2022/01/24 02:15:43;;;;;;;27.05;11.85;;;;;;;;;;2123591;28;20355;-49
2022/01/24 02:16:49;;;;;;;25.38;11.15;;;;;;;;;;2119793;27;20549;-49
2022/01/24 02:18:02;;;;;;;24.17;10.90;;;;;;;;;;2123780;28;20415;-49
2022/01/24 02:19:18;;;;;;;25.25;11.82;;;;;;;;;;2121097;27;20066;-50
2022/01/24 02:20:38;;;;;;;25.85;11.57;;;;;;;;;;2115145;28;20139;-50
2022/01/24 02:21:45;;;;;;;27.63;11.55;;;;;;;;;;2115751;27;20570;-50
2022/01/24 02:23:01;;;;;;;25.67;10.98;;;;;;;;;;2121772;28;20123;-49
2022/01/24 02:24:02;;;;;;;23.55;10.82;;;;;;;;;;2123706;28;20126;-49
2022/01/24 02:25:11;;;;;;;28.02;11.85;;;;;;;;;;2119072;27;20344;-50
2022/01/24 02:26:16;;;;;;;28.13;12.05;;;;;;;;;;2123622;28;20130;-49
2022/01/24 02:27:18;;;;;;;25.42;11.77;;;;;;;;;;2122530;27;20070;-49
2022/01/24 02:28:21;;;;;;;24.02;11.30;;;;;;;;;;2121859;28;20383;-52
2022/01/24 02:29:32;;;;;;;25.83;12.60;;;;;;;;;;2123570;28;20127;-52
2022/01/24 02:30:55;;;;;;;23.55;11.82;;;;;;;;;;2120325;27;20563;-49
2022/01/24 02:31:56;;;;;;;24.95;11.68;;;;;;;;;;2123879;28;20286;-46
2022/01/24 02:32:57;;;;;;;22.17;10.38;;;;;;;;;;2122496;27;20216;-46
2022/01/24 02:33:58;;;;;;;22.88;9.20;;;;;;;;;;2121614;28;20496;-47
2022/01/24 02:35:00;;;;;;;26.13;10.87;;;;;;;;;;2123522;28;20078;-47
2022/01/24 02:36:00;;;;;;;27.20;12.13;;;;;;;;;;2121150;27;20622;-46
2022/01/24 02:37:04;;;;;;;27.13;11.87;;;;;;;;;;2122620;28;20045;-46
2022/01/24 02:38:11;;;;;;;28.33;11.90;;;;;;;;;;2123599;28;20058;-45
2022/01/24 02:39:35;;;;;;;27.48;12.05;;;;;;;;;;2119100;27;20123;-45
2022/01/24 02:40:36;;;;;;;27.08;11.50;;;;;;;;;;2123285;28;20332;-45
2022/01/24 02:48:25;;;;;;;23.08;10.80;;;;;;;;;;2115709;28;20629;-46
2022/01/24 02:49:26;;;;;;;28.05;12.15;;;;;;;;;;2114924;28;20393;-45
2022/01/24 02:50:45;;;;;;;20.80;11.20;;;;;;;;;;2119288;27;20099;-47
2022/01/24 02:51:46;;;;;;;24.52;10.70;;;;;;;;;;2123409;28;20138;-45
2022/01/24 02:52:48;;;;;;;23.23;10.23;;;;;;;;;;2123325;27;20045;-46
2022/01/24 02:53:49;;;;;;;;;;;;;;;;;;2116036;28;20483;-45
2022/01/24 02:54:50;;;;;;;25.23;10.60;;;;;;;;;;2114998;28;19928;-45
2022/01/24 02:55:51;;;;;;;26.98;11.80;;;;;;;;;;2117584;27;20043;-46
2022/01/24 02:56:53;;;;;;;29.77;12.98;;;;;;;;;;2122603;28;20506;-45
2022/01/24 02:57:53;;;;;;;28.10;12.10;;;;;;;;;;2123267;28;20130;-45
2022/01/24 02:58:54;;;;;;;28.10;10.75;;;;;;;;;;2119457;27;20664;-47
2022/01/24 02:59:55;;;;;;;32.33;12.25;;;;;;;;;;2116193;28;20560;-46
2022/01/24 03:00:57;;;;;;;25.77;11.93;;;;;;;;;;2121541;27;20099;-46
2022/01/24 03:01:58;;;;;;;26.98;12.30;;;;;;;;;;2120418;27;20047;-45
2022/01/24 03:02:59;;;;;;;28.80;12.45;;;;;;;;;;2123292;28;20510;-45
2022/01/24 03:04:00;;;;;;;27.95;12.40;;;;;;;;;;2120486;27;20054;-45
2022/01/24 03:05:02;;;;;;;28.43;10.70;;;;;;;;;;2115633;28;20073;-45
2022/01/24 03:06:03;;;;;;;29.48;13.20;;;;;;;;;;2114808;28;20131;-46
2022/01/24 03:07:04;;;;;;;28.00;12.90;;;;;;;;;;2117763;27;20522;-45
2022/01/24 03:08:06;;;;;;;27.73;12.67;;;;;;;;;;2115900;28;20051;-45
2022/01/24 03:09:08;;;;;;;27.92;11.93;;;;;;;;;;2114900;28;20130;-47
2022/01/24 03:10:13;;;;;;;26.02;12.82;;;;;;;;;;2118861;27;20123;-46
2022/01/24 03:11:15;;;;;;;23.63;11.95;;;;;;;;;;2123356;28;20138;-46
2022/01/24 03:12:37;;;;;;;26.45;12.73;;;;;;;;;;2122878;27;20079;-46
2022/01/24 03:13:37;;;;;;;25.48;12.00;;;;;;;;;;2119937;28;20122;-46
2022/01/24 03:14:39;;;;;;;24.20;12.23;;;;;;;;;;2123346;28;20126;-45
2022/01/24 03:15:40;;;;;;;24.20;12.02;;;;;;;;;;2120205;27;20043;-47
2022/01/24 03:16:41;;;;;;;26.92;12.25;;;;;;;;;;2115389;28;20177;-45
2022/01/24 03:17:42;;;;;;;25.83;12.15;;;;;;;;;;2114794;28;20400;-46
2022/01/24 03:18:43;;;;;;;22.75;11.38;;;;;;;;;;2117506;27;20135;-46
2022/01/24 03:19:44;;;;;;;26.20;9.85;;;;;;;;;;2115086;28;20412;-46
2022/01/24 03:20:45;;;;;;;25.25;11.40;;;;;;;;;;2114691;28;20134;-45
2022/01/24 03:21:47;;;;;;;27.90;11.70;;;;;;;;;;2119131;28;20055;-46
2022/01/24 03:22:48;;;;;;;;;;;;;;;;;;2123551;28;20287;-46
2022/01/24 03:23:50;;;;;;;26.35;10.18;;;;;;;;;;2122594;27;20009;-45
2022/01/24 03:24:51;;;;;;;;;;;;;;;;;;2120841;28;20515;-46
2022/01/24 03:25:52;;;;;;;21.65;9.70;;;;;;;;;;2123141;28;19925;-45
2022/01/24 03:26:54;;;;;;;22.02;9.05;;;;;;;;;;2121475;27;20121;-46
2022/01/24 03:27:55;;;;;;;25.33;9.90;;;;;;;;;;2121837;28;20153;-46
2022/01/24 03:28:56;;;;;;;20.80;9.75;;;;;;;;;;2123160;28;20403;-45
2022/01/24 03:29:57;;;;;;;22.00;9.90;;;;;;;;;;2118918;27;20043;-46
2022/01/24 03:30:58;;;;;;;28.15;10.15;;;;;;;;;;2114619;28;20135;-46
2022/01/24 03:31:59;;;;;;;20.93;9.53;;;;;;;;;;2114674;28;20432;-46
2022/01/24 03:33:01;;;;;;;23.17;10.32;;;;;;;;;;2117410;27;20044;-46
2022/01/24 03:34:03;;;;;;;23.55;9.55;;;;;;;;;;2123200;28;20054;-46
2022/01/24 03:35:07;;;;;;;22.77;10.50;;;;;;;;;;2123826;27;20039;-46
2022/01/24 03:36:09;;;;;;;22.83;9.93;;;;;;;;;;2119668;28;20594;-45
2022/01/24 03:37:10;;;;;;;25.30;10.10;;;;;;;;;;2123233;28;20134;-45
2022/01/24 03:38:12;;;;;;;23.35;10.18;;;;;;;;;;2120272;27;20042;-46
2022/01/24 03:39:13;;;;;;;30.60;11.95;;;;;;;;;;2115725;28;20122;-45
2022/01/24 03:40:14;;;;;;;27.67;11.13;;;;;;;;;;2114712;28;20071;-46
2022/01/24 03:41:15;;;;;;;26.75;10.70;;;;;;;;;;2117285;27;20040;-46
2022/01/24 03:42:16;;;;;;;23.02;9.77;;;;;;;;;;2122698;28;20054;-46
2022/01/24 03:43:18;;;;;;;21.03;8.43;;;;;;;;;;2122957;28;20047;-45
2022/01/24 03:44:19;;;;;;;24.20;10.63;;;;;;;;;;2119643;27;20134;-45
2022/01/24 03:45:35;;;;;;;20.80;9.52;;;;;;;;;;2114750;28;20058;-50
2022/01/24 03:46:48;;;;;;;26.67;10.25;;;;;;;;;;2116491;27;20046;-49
2022/01/24 03:48:02;;;;;;;26.00;10.07;;;;;;;;;;2121601;28;20328;-49
2022/01/24 03:49:19;;;;;;;26.88;10.10;;;;;;;;;;2123107;28;20321;-49
2022/01/24 03:50:20;;;;;;;29.77;10.88;;;;;;;;;;2119941;28;20354;-50
2022/01/24 03:51:22;;;;;;;26.85;11.60;;;;;;;;;;2122990;28;20816;-49
2022/01/24 03:52:23;;;;;;;27.40;12.05;;;;;;;;;;2121138;27;20122;-49
2022/01/24 03:53:24;;;;;;;27.83;12.35;;;;;;;;;;2121671;28;20698;-49
2022/01/24 03:54:26;;;;;;;31.05;11.25;;;;;;;;;;2123007;28;20099;-49
2022/01/24 03:55:27;;;;;;;25.65;10.52;;;;;;;;;;2121030;27;20144;-50
2022/01/24 03:56:28;;;;;;;26.98;9.13;;;;;;;;;;2114152;28;20572;-49
2022/01/24 03:57:29;;;;;;;25.00;9.32;;;;;;;;;;2114638;28;20116;-49
2022/01/24 03:58:30;;;;;;;23.08;9.25;;;;;;;;;;2118929;27;20134;-49
2022/01/24 03:59:32;;;;;;;26.95;11.02;;;;;;;;;;2122868;28;20039;-49
2022/01/24 04:00:33;;;;;;;23.27;8.98;;;;;;;;;;2123390;27;20075;-50
2022/01/24 04:01:35;;;;;;;27.88;10.90;;;;;;;;;;2114998;27;20071;-50
2022/01/24 04:02:36;;;;;;;25.80;11.20;;;;;;;;;;2114586;28;20060;-51
2022/01/24 04:03:38;;;;;;;32.10;11.25;;;;;;;;;;2116313;27;20077;-50
2022/01/24 04:04:40;;;;;;;23.45;10.80;;;;;;;;;;2121269;28;20126;-50
2022/01/24 04:05:41;;;;;;;28.80;11.13;;;;;;;;;;2122775;28;20485;-51
2022/01/24 04:06:42;;;;;;;28.88;10.80;;;;;;;;;;2120718;27;20036;-52
2022/01/24 04:07:44;;;;;;;32.77;12.20;;;;;;;;;;2122210;28;20046;-52
2022/01/24 04:08:45;;;;;;;26.42;10.70;;;;;;;;;;2122880;28;20399;-52
2022/01/24 04:09:47;;;;;;;23.00;10.35;;;;;;;;;;2117296;27;20051;-52
2022/01/24 04:10:52;;;;;;;26.85;9.45;;;;;;;;;;2114215;28;20123;-53
2022/01/24 04:11:56;;;;;;;27.38;10.98;;;;;;;;;;2115147;27;20130;-50
2022/01/24 04:13:07;;;;;;;26.63;11.40;;;;;;;;;;2119216;28;20317;-50
2022/01/24 04:14:26;;;;;;;30.60;10.98;;;;;;;;;;2123066;28;20282;-50
2022/01/24 04:15:44;;;;;;;29.33;11.63;;;;;;;;;;2119597;27;20583;-51
2022/01/24 04:16:52;;;;;;;27.45;10.45;;;;;;;;;;2122794;28;20346;-52
2022/01/24 04:18:11;;;;;;;23.35;10.18;;;;;;;;;;2120966;27;20366;-51
2022/01/24 04:19:35;;;;;;;26.92;10.85;;;;;;;;;;2114396;28;20135;-50
2022/01/24 04:21:55;;;;;;;24.05;11.30;;;;;;;;;;2114211;28;20831;-51
2022/01/24 04:22:58;;;;;;;34.15;11.85;;;;;;;;;;2114295;28;20311;-51
2022/01/24 04:24:03;;;;;;;29.00;12.13;;;;;;;;;;2114244;27;20854;-49
2022/01/24 04:25:13;;;;;;;30.20;12.82;;;;;;;;;;2113694;28;20343;-50
2022/01/24 04:26:14;;;;;;;30.95;12.35;;;;;;;;;;2115814;27;20315;-51
2022/01/24 04:27:15;;;;;;;26.60;10.13;;;;;;;;;;2120617;28;20043;-49
2022/01/24 04:28:17;;;;;;;29.13;11.13;;;;;;;;;;2122880;28;20625;-51
2022/01/24 04:29:17;;;;;;;30.23;12.15;;;;;;;;;;2120876;27;20089;-49
2022/01/24 04:30:19;;;;;;;34.22;12.55;;;;;;;;;;2121488;28;20046;-51
2022/01/24 04:31:20;;;;;;;30.70;11.63;;;;;;;;;;2122813;28;20700;-47
2022/01/24 04:32:21;;;;;;;31.88;12.82;;;;;;;;;;2119175;27;20452;-46
2022/01/24 04:33:22;;;;;;;36.33;12.30;;;;;;;;;;2114245;28;20563;-45
2022/01/24 04:34:23;;;;;;;34.17;13.27;;;;;;;;;;2114188;28;20052;-46
2022/01/24 04:35:24;;;;;;;31.25;12.45;;;;;;;;;;2118071;27;20579;-45
2022/01/24 04:36:26;;;;;;;31.95;12.85;;;;;;;;;;2114215;28;20051;-46
2022/01/24 04:37:27;;;;;;;32.58;12.27;;;;;;;;;;2116282;27;20130;-47
2022/01/24 04:38:28;;;;;;;24.97;10.90;;;;;;;;;;2116178;28;20377;-45
2022/01/24 04:39:29;;;;;;;35.00;13.77;;;;;;;;;;2114303;28;20048;-45
2022/01/24 04:40:31;;;;;;;34.60;12.60;;;;;;;;;;2114953;27;20130;-46
2022/01/24 04:41:36;;;;;;;32.42;13.00;;;;;;;;;;2120246;28;20412;-46
2022/01/24 04:42:45;;;;;;;32.47;13.20;;;;;;;;;;2122618;28;20366;-46
2022/01/24 04:43:53;;;;;;;31.90;13.52;;;;;;;;;;2119515;27;20643;-46
2022/01/24 04:45:10;;;;;;;30.25;11.85;;;;;;;;;;2122778;28;20328;-46
2022/01/24 04:46:17;;;;;;;27.52;12.23;;;;;;;;;;2120995;27;20274;-46
2022/01/24 04:47:24;;;;;;;30.17;12.82;;;;;;;;;;2121194;28;20279;-46
2022/01/24 04:51:14;;;;;;;34.35;12.77;;;;;;;;;;2122572;28;20759;-46
2022/01/24 04:52:23;;;;;;;30.70;12.25;;;;;;;;;;2115539;27;20351;-46
2022/01/24 04:54:41;;;;;;;29.50;11.65;;;;;;;;;;2093479;28;20368;-46
2022/01/24 04:55:43;;;;;;;29.85;11.73;;;;;;;;;;2113338;28;20279;-46
2022/01/24 04:56:45;;;;;;;29.58;12.27;;;;;;;;;;2122663;28;20336;-47
2022/01/24 04:57:46;;;;;;;30.35;11.50;;;;;;;;;;2119912;27;20050;-46
2022/01/24 04:58:47;;;;;;;33.97;12.38;;;;;;;;;;2122472;28;20087;-46
2022/01/24 04:59:50;;;;;;;31.67;13.20;;;;;;;;;;2122604;28;20127;-46
2022/01/24 05:00:51;;;;;;;34.28;12.52;;;;;;;;;;2118720;27;20081;-46
2022/01/24 05:01:52;;;;;;;28.05;11.52;;;;;;;;;;2114030;28;20303;-46
2022/01/24 05:02:54;;;;;;;29.45;12.45;;;;;;;;;;2113673;27;20051;-51
2022/01/24 05:03:56;;;;;;;28.63;11.98;;;;;;;;;;2118550;28;20279;-51
2022/01/24 05:04:57;;;;;;;31.33;13.80;;;;;;;;;;2122723;28;20208;-50
2022/01/24 05:05:59;;;;;;;35.42;13.70;;;;;;;;;;2121096;27;20481;-50
2022/01/24 05:07:01;;;;;;;32.95;13.85;;;;;;;;;;2120884;28;20567;-51
2022/01/24 05:08:04;;;;;;;32.20;12.23;;;;;;;;;;2122556;28;20074;-50
2022/01/24 05:09:06;;;;;;;30.55;14.15;;;;;;;;;;2119764;27;20123;-50
2022/01/24 05:10:15;;;;;;;28.02;12.32;;;;;;;;;;2122505;28;20705;-53
2022/01/24 05:11:21;;;;;;;29.10;13.40;;;;;;;;;;2122081;28;20130;-51
2022/01/24 05:12:31;;;;;;;32.33;12.27;;;;;;;;;;2118038;28;20271;-51
2022/01/24 05:21:43;;;;;;;34.42;12.73;;;;;;;;;;2122625;28;20320;-50
2022/01/24 05:24:04;;;;;;;28.67;11.35;;;;;;;;;;2114975;28;20707;-53
2022/01/24 05:25:06;;;;;;;32.78;12.85;;;;;;;;;;2113939;28;20275;-52
2022/01/24 05:26:07;;;;;;;30.13;11.82;;;;;;;;;;2116662;27;20075;-53
2022/01/24 05:27:09;;;;;;;36.10;13.18;;;;;;;;;;2113994;28;20059;-51
2022/01/24 05:28:10;;;;;;;31.55;13.38;;;;;;;;;;2114166;28;20052;-50
2022/01/24 05:29:12;;;;;;;32.55;13.50;;;;;;;;;;2119557;27;20428;-50
2022/01/24 05:30:13;;;;;;;32.97;13.95;;;;;;;;;;2122527;28;20127;-53
2022/01/24 05:31:14;;;;;;;29.00;13.18;;;;;;;;;;2123162;27;20089;-51
2022/01/24 05:32:15;;;;;;;36.70;13.57;;;;;;;;;;2119599;27;20039;-50
2022/01/24 05:33:16;;;;;;;29.10;13.90;;;;;;;;;;2122447;28;20051;-50
2022/01/24 05:34:21;;;;;;;29.40;13.07;;;;;;;;;;2120641;27;20483;-52
2022/01/24 05:35:23;;;;;;;28.25;12.73;;;;;;;;;;2120112;28;20363;-51
2022/01/24 05:36:24;;;;;;;35.55;12.20;;;;;;;;;;2122230;27;20401;-54
2022/01/24 05:37:25;;;;;;;26.23;12.23;;;;;;;;;;2119986;27;20088;-53
2022/01/24 05:38:26;;;;;;;26.27;11.60;;;;;;;;;;2123473;28;20067;-52
2022/01/24 05:39:28;;;;;;;29.88;12.25;;;;;;;;;;2124137;28;20132;-52
2022/01/24 05:40:29;;;;;;;30.52;13.32;;;;;;;;;;2121926;27;20050;-53
2022/01/24 05:41:30;;;;;;;32.72;12.25;;;;;;;;;;2123767;28;20083;-50
2022/01/24 05:42:31;;;;;;;25.60;11.82;;;;;;;;;;2124140;27;20126;-51
2022/01/24 05:43:35;;;;;;;25.45;11.68;;;;;;;;;;2120270;27;20092;-53
2022/01/24 05:44:36;;;;;;;30.10;11.93;;;;;;;;;;2123927;28;20078;-53
2022/01/24 05:45:37;;;;;;;28.20;12.93;;;;;;;;;;2123789;27;20317;-50
2022/01/24 05:46:38;;;;;;;27.70;12.25;;;;;;;;;;2116499;28;20043;-53
2022/01/24 05:47:40;;;;;;;23.90;11.02;;;;;;;;;;2115340;28;20497;-51
2022/01/24 05:48:41;;;;;;;26.33;11.80;;;;;;;;;;2118276;27;20039;-53
2022/01/24 05:49:42;;;;;;;30.13;11.77;;;;;;;;;;2122589;28;20035;-52
2022/01/24 05:50:43;;;;;;;29.73;12.52;;;;;;;;;;2123997;28;20126;-47
2022/01/24 05:51:44;;;;;;;28.60;11.52;;;;;;;;;;2120676;27;20075;-47
2022/01/24 05:52:45;;;;;;;25.20;12.25;;;;;;;;;;2124026;28;20126;-48
2022/01/24 05:53:47;;;;;;;29.95;12.15;;;;;;;;;;2123594;27;20197;-46
2022/01/24 05:54:48;;;;;;;24.38;11.05;;;;;;;;;;2121225;28;20046;-46
2022/01/24 05:55:49;;;;;;;26.15;10.77;;;;;;;;;;2123597;28;20571;-46
2022/01/24 05:56:50;;;;;;;22.77;10.85;;;;;;;;;;2121993;27;20158;-46
2022/01/24 05:57:53;;;;;;;30.77;12.13;;;;;;;;;;2116684;28;20048;-46
2022/01/24 05:58:54;;;;;;;27.98;11.15;;;;;;;;;;2115130;28;20291;-45
2022/01/24 05:59:56;;;;;;;25.38;11.45;;;;;;;;;;2118600;27;20040;-46
2022/01/24 06:00:57;;;;;;;24.38;11.27;;;;;;;;;;2122237;28;20118;-50
2022/01/24 06:01:58;;;;;;;27.33;11.38;;;;;;;;;;2115212;28;20408;-50
2022/01/24 06:02:59;;;;;;;28.67;10.52;;;;;;;;;;2118136;27;20413;-52
2022/01/24 06:04:00;;;;;;;32.75;12.93;;;;;;;;;;2115295;28;20123;-50
2022/01/24 06:05:02;;;;;;;23.55;9.90;;;;;;;;;;2117697;27;20048;-50
2022/01/24 06:06:03;;;;;;;29.10;11.85;;;;;;;;;;2116430;28;20089;-49
2022/01/24 06:07:04;;;;;;;26.48;10.00;;;;;;;;;;2115295;28;20134;-49
2022/01/24 06:08:05;;;;;;;22.63;9.95;;;;;;;;;;2115957;27;20444;-48
2022/01/24 06:09:07;;;;;;;24.93;10.13;;;;;;;;;;2121470;28;20096;-49
2022/01/24 06:10:09;;;;;;;24.08;10.57;;;;;;;;;;2123625;28;20287;-49
2022/01/24 06:11:09;;;;;;;26.25;11.32;;;;;;;;;;2120976;27;20449;-49
2022/01/24 06:12:11;;;;;;;24.87;11.20;;;;;;;;;;2115152;28;20100;-49
2022/01/24 06:13:13;;;;;;;23.95;10.32;;;;;;;;;;2117137;27;20050;-46
2022/01/24 06:14:14;;;;;;;24.55;10.77;;;;;;;;;;2119578;27;20047;-45
2022/01/24 06:15:15;;;;;;;22.92;9.57;;;;;;;;;;2123766;28;20125;-45
2022/01/24 06:16:16;;;;;;;26.17;10.43;;;;;;;;;;2123462;27;20403;-46
2022/01/24 06:17:17;;;;;;;27.15;10.95;;;;;;;;;;2121754;28;20058;-46
2022/01/24 06:18:20;;;;;;;24.67;9.67;;;;;;;;;;2123673;28;20416;-45
2022/01/24 06:19:21;;;;;;;21.80;9.20;;;;;;;;;;2117916;27;20050;-46
2022/01/24 06:20:24;;;;;;;23.65;10.30;;;;;;;;;;2115626;28;20048;-45
2022/01/24 06:21:25;;;;;;;21.95;9.45;;;;;;;;;;2115059;28;20039;-46
2022/01/24 06:22:26;;;;;;;27.98;11.00;;;;;;;;;;2116689;28;20086;-46
2022/01/24 06:23:27;;;;;;;21.70;9.32;;;;;;;;;;2123537;28;20076;-45
2022/01/24 06:24:28;;;;;;;25.25;10.52;;;;;;;;;;2123099;27;20139;-46
2022/01/24 06:25:49;;;;;;;24.42;9.50;;;;;;;;;;2115803;28;20054;-45
2022/01/24 06:26:50;;;;;;;17.38;8.30;;;;;;;;;;2115025;28;20386;-45
2022/01/24 06:27:51;;;;;;;22.58;9.05;;;;;;;;;;2117975;27;20093;-46
2022/01/24 06:28:53;;;;;;;20.05;8.95;;;;;;;;;;2123048;28;20074;-45
2022/01/24 06:29:55;;;;;;;21.13;9.27;;;;;;;;;;2123527;28;20047;-45
2022/01/24 06:30:58;;;;;;;18.38;8.32;;;;;;;;;;2120310;27;20851;-45
2022/01/24 06:32:03;;;;;;;23.80;9.77;;;;;;;;;;2123587;28;20122;-46
2022/01/24 06:33:05;;;;;;;26.02;10.05;;;;;;;;;;2124333;27;20126;-46
2022/01/24 06:34:06;;;;;;;22.23;9.32;;;;;;;;;;2120055;28;20054;-45
2022/01/24 06:35:08;;;;;;;24.63;9.70;;;;;;;;;;2123851;28;20130;-49
2022/01/24 06:36:10;;;;;;;26.13;10.98;;;;;;;;;;2121887;27;20126;-49
2022/01/24 06:37:11;;;;;;;22.17;10.35;;;;;;;;;;2116442;28;20377;-51
2022/01/24 06:38:12;;;;;;;25.33;9.60;;;;;;;;;;2114934;28;20089;-49
2022/01/24 06:39:14;;;;;;;22.25;9.70;;;;;;;;;;2116488;27;20135;-50
2022/01/24 06:40:15;;;;;;;26.15;10.05;;;;;;;;;;2114969;28;20070;-51
2022/01/24 06:41:21;;;;;;;23.83;11.02;;;;;;;;;;2115044;28;20312;-50
2022/01/24 06:42:23;;;;;;;24.70;10.15;;;;;;;;;;2121224;27;20132;-49
2022/01/24 06:43:24;;;;;;;22.98;10.43;;;;;;;;;;2123527;28;20125;-50
2022/01/24 06:44:26;;;;;;;31.52;11.25;;;;;;;;;;2124333;27;20076;-50
2022/01/24 06:45:27;;;;;;;27.67;11.23;;;;;;;;;;2119448;28;20130;-51
2022/01/24 06:46:28;;;;;;;29.25;10.65;;;;;;;;;;2123667;28;20054;-49
2022/01/24 06:47:29;;;;;;;27.17;10.20;;;;;;;;;;2121696;27;20398;-49
2022/01/24 06:48:30;;;;;;;30.83;11.27;;;;;;;;;;2120139;28;20496;-46
2022/01/24 06:49:31;;;;;;;27.95;11.02;;;;;;;;;;2123370;28;20175;-46
2022/01/24 06:50:33;;;;;;;32.10;11.37;;;;;;;;;;2120726;27;20047;-45
2022/01/24 06:51:34;;;;;;;26.17;10.80;;;;;;;;;;2122885;28;20279;-45
2022/01/24 06:52:35;;;;;;;31.50;11.70;;;;;;;;;;2123291;28;20399;-48
2022/01/24 06:53:36;;;;;;;28.95;11.90;;;;;;;;;;2120042;27;20043;-46
2022/01/24 06:54:37;;;;;;;30.35;11.88;;;;;;;;;;2123461;28;20062;-46
2022/01/24 06:55:39;;;;;;;27.15;11.05;;;;;;;;;;2123414;27;20116;-46
2022/01/24 06:56:39;;;;;;;30.90;11.23;;;;;;;;;;2119949;27;20039;-45
2022/01/24 06:57:41;;;;;;;29.07;11.70;;;;;;;;;;2123475;28;20035;-47
2022/01/24 06:58:42;;;;;;;33.25;12.70;;;;;;;;;;2121444;27;20184;-45
2022/01/24 06:59:45;;;;;;;32.20;12.38;;;;;;;;;;2119845;28;20039;-46
2022/01/24 07:00:46;;;;;;;23.65;11.10;;;;;;;;;;2123340;28;20047;-46
2022/01/24 07:01:47;;;;;;;29.70;12.25;;;;;;;;;;2116181;27;20044;-46
2022/01/24 07:02:48;;;;;;;31.52;11.90;;;;;;;;;;2115784;28;20047;-46
2022/01/24 07:03:50;;;;;;;23.60;9.98;;;;;;;;;;2114986;28;20404;-48
2022/01/24 07:04:51;;;;;;;25.45;10.43;;;;;;;;;;2115539;27;20089;-46
2022/01/24 07:05:54;;;;;;;29.90;11.73;;;;;;;;;;2123107;28;20047;-46
2022/01/24 07:06:55;;;;;;;25.73;11.68;;;;;;;;;;2122998;27;20447;-45
2022/01/24 07:07:57;;;;;;;34.17;11.60;;;;;;;;;;2119333;28;20082;-46
2022/01/24 07:08:59;;;;;;;27.88;10.85;;;;;;;;;;2123320;28;20040;-45